sensor_id;sensor_type;location;lat;lon;timestamp;temperature;humidity
20366;DHT22;10341;49.894;8.822;2023-08-06T00:02:53;15.10;99.90
20366;DHT22;10341;49.894;8.822;2023-08-06T00:08:13;15.20;99.90
20366;DHT22;10341;49.894;8.822;2023-08-06T00:13:32;15.10;99.90
20366;DHT22;10341;49.894;8.822;2023-08-06T00:18:52;15.20;99.90
20366;DHT22;10341;49.894;8.822;2023-08-06T00:24:11;15.10;99.90
20366;DHT22;10341;49.894;8.822;2023-08-06T00:29:30;15.00;99.90
20366;DHT22;10341;49.894;8.822;2023-08-06T00:34:49;15.00;99.90
20366;DHT22;10341;49.894;8.822;2023-08-06T00:40:09;15.10;99.90
20366;DHT22;10341;49.894;8.822;2023-08-06T00:45:29;15.10;99.90
20366;DHT22;10341;49.894;8.822;2023-08-06T00:50:50;15.20;99.90
20366;DHT22;10341;49.894;8.822;2023-08-06T00:56:10;15.20;99.90
20366;DHT22;10341;49.894;8.822;2023-08-06T01:01:30;15.20;99.90
20366;DHT22;10341;49.894;8.822;2023-08-06T01:07:15;15.30;99.90
20366;DHT22;10341;49.894;8.822;2023-08-06T01:12:48;15.30;99.90
20366;DHT22;10341;49.894;8.822;2023-08-06T01:18:10;15.30;99.90
20366;DHT22;10341;49.894;8.822;2023-08-06T01:23:30;15.30;99.90
20366;DHT22;10341;49.894;8.822;2023-08-06T01:28:59;15.20;99.90
20366;DHT22;10341;49.894;8.822;2023-08-06T01:34:23;15.20;99.90
20366;DHT22;10341;49.894;8.822;2023-08-06T01:39:43;15.30;99.90
20366;DHT22;10341;49.894;8.822;2023-08-06T01:45:02;15.40;99.90
20366;DHT22;10341;49.894;8.822;2023-08-06T01:50:22;15.40;99.90
20366;DHT22;10341;49.894;8.822;2023-08-06T01:55:41;15.50;99.90
20366;DHT22;10341;49.894;8.822;2023-08-06T02:01:01;15.50;99.90
20366;DHT22;10341;49.894;8.822;2023-08-06T02:06:21;15.60;99.90
20366;DHT22;10341;49.894;8.822;2023-08-06T02:11:40;15.50;99.90
20366;DHT22;10341;49.894;8.822;2023-08-06T02:17:00;15.70;99.90
20366;DHT22;10341;49.894;8.822;2023-08-06T02:22:19;15.60;99.90
20366;DHT22;10341;49.894;8.822;2023-08-06T02:27:38;15.60;99.90
20366;DHT22;10341;49.894;8.822;2023-08-06T02:32:58;15.60;99.90
20366;DHT22;10341;49.894;8.822;2023-08-06T02:38:18;15.60;99.90
20366;DHT22;10341;49.894;8.822;2023-08-06T02:43:37;15.60;99.90
20366;DHT22;10341;49.894;8.822;2023-08-06T02:48:57;15.60;99.90
20366;DHT22;10341;49.894;8.822;2023-08-06T02:54:17;15.60;99.90
20366;DHT22;10341;49.894;8.822;2023-08-06T02:59:37;15.60;99.90
20366;DHT22;10341;49.894;8.822;2023-08-06T03:05:01;15.50;99.90
20366;DHT22;10341;49.894;8.822;2023-08-06T03:10:25;15.50;99.90
20366;DHT22;10341;49.894;8.822;2023-08-06T03:15:54;15.30;99.90
20366;DHT22;10341;49.894;8.822;2023-08-06T03:21:14;15.30;99.90
20366;DHT22;10341;49.894;8.822;2023-08-06T03:26:34;15.30;99.90
20366;DHT22;10341;49.894;8.822;2023-08-06T03:31:55;15.30;99.90
20366;DHT22;10341;49.894;8.822;2023-08-06T03:37:14;15.30;99.90
20366;DHT22;10341;49.894;8.822;2023-08-06T03:42:34;15.30;99.90
20366;DHT22;10341;49.894;8.822;2023-08-06T03:47:53;15.30;99.90
20366;DHT22;10341;49.894;8.822;2023-08-06T03:53:13;15.30;99.90
20366;DHT22;10341;49.894;8.822;2023-08-06T03:58:32;15.40;99.90
20366;DHT22;10341;49.894;8.822;2023-08-06T04:03:52;15.40;99.90
20366;DHT22;10341;49.894;8.822;2023-08-06T04:09:11;15.30;99.90
20366;DHT22;10341;49.894;8.822;2023-08-06T04:14:32;15.20;99.90
20366;DHT22;10341;49.894;8.822;2023-08-06T04:19:54;15.30;99.90
20366;DHT22;10341;49.894;8.822;2023-08-06T04:25:13;15.30;99.90
20366;DHT22;10341;49.894;8.822;2023-08-06T04:30:33;15.30;99.90
20366;DHT22;10341;49.894;8.822;2023-08-06T04:35:54;15.30;99.90
20366;DHT22;10341;49.894;8.822;2023-08-06T04:41:19;15.30;99.90
20366;DHT22;10341;49.894;8.822;2023-08-06T04:46:38;15.20;99.90
20366;DHT22;10341;49.894;8.822;2023-08-06T04:51:57;15.20;99.90
20366;DHT22;10341;49.894;8.822;2023-08-06T04:57:17;15.10;99.90
20366;DHT22;10341;49.894;8.822;2023-08-06T05:02:36;15.10;99.90
20366;DHT22;10341;49.894;8.822;2023-08-06T05:07:57;15.10;99.90
20366;DHT22;10341;49.894;8.822;2023-08-06T05:13:17;15.10;99.90
20366;DHT22;10341;49.894;8.822;2023-08-06T05:18:36;15.20;99.90
20366;DHT22;10341;49.894;8.822;2023-08-06T05:23:56;15.20;99.90
20366;DHT22;10341;49.894;8.822;2023-08-06T05:29:16;15.20;99.90
20366;DHT22;10341;49.894;8.822;2023-08-06T05:34:36;15.20;99.90
20366;DHT22;10341;49.894;8.822;2023-08-06T05:39:55;15.20;99.90
20366;DHT22;10341;49.894;8.822;2023-08-06T05:45:15;15.10;99.90
20366;DHT22;10341;49.894;8.822;2023-08-06T05:50:35;15.10;99.90
20366;DHT22;10341;49.894;8.822;2023-08-06T05:55:54;15.00;99.90
20366;DHT22;10341;49.894;8.822;2023-08-06T06:01:14;15.00;99.90
20366;DHT22;10341;49.894;8.822;2023-08-06T06:06:33;15.00;99.90
20366;DHT22;10341;49.894;8.822;2023-08-06T06:11:52;15.00;99.90
20366;DHT22;10341;49.894;8.822;2023-08-06T06:17:11;15.00;99.90
20366;DHT22;10341;49.894;8.822;2023-08-06T06:22:31;15.10;99.90
20366;DHT22;10341;49.894;8.822;2023-08-06T06:27:51;15.20;99.90
20366;DHT22;10341;49.894;8.822;2023-08-06T06:33:10;15.40;99.90
20366;DHT22;10341;49.894;8.822;2023-08-06T06:38:29;15.50;99.90
20366;DHT22;10341;49.894;8.822;2023-08-06T06:43:49;15.60;99.90
20366;DHT22;10341;49.894;8.822;2023-08-06T06:49:08;15.70;99.90
20366;DHT22;10341;49.894;8.822;2023-08-06T06:54:28;15.80;99.90
20366;DHT22;10341;49.894;8.822;2023-08-06T06:59:47;15.80;99.90
20366;DHT22;10341;49.894;8.822;2023-08-06T07:05:06;15.80;99.90
20366;DHT22;10341;49.894;8.822;2023-08-06T07:10:26;15.90;99.90
20366;DHT22;10341;49.894;8.822;2023-08-06T07:15:45;15.90;99.90
20366;DHT22;10341;49.894;8.822;2023-08-06T07:21:04;15.90;99.90
20366;DHT22;10341;49.894;8.822;2023-08-06T07:26:24;16.00;99.90
20366;DHT22;10341;49.894;8.822;2023-08-06T07:31:43;16.10;99.90
20366;DHT22;10341;49.894;8.822;2023-08-06T07:37:02;16.20;99.90
20366;DHT22;10341;49.894;8.822;2023-08-06T07:42:22;16.20;99.90
20366;DHT22;10341;49.894;8.822;2023-08-06T07:47:41;16.30;99.90
20366;DHT22;10341;49.894;8.822;2023-08-06T07:53:02;16.30;99.90
20366;DHT22;10341;49.894;8.822;2023-08-06T07:58:22;16.30;99.90
20366;DHT22;10341;49.894;8.822;2023-08-06T08:03:42;16.30;99.90
20366;DHT22;10341;49.894;8.822;2023-08-06T08:09:02;16.40;99.90
20366;DHT22;10341;49.894;8.822;2023-08-06T08:14:22;16.40;99.90
20366;DHT22;10341;49.894;8.822;2023-08-06T08:19:41;16.50;99.90
20366;DHT22;10341;49.894;8.822;2023-08-06T08:25:00;16.90;99.90
20366;DHT22;10341;49.894;8.822;2023-08-06T08:30:19;17.20;99.90
20366;DHT22;10341;49.894;8.822;2023-08-06T08:35:39;17.40;99.90
20366;DHT22;10341;49.894;8.822;2023-08-06T08:40:59;17.50;99.90
20366;DHT22;10341;49.894;8.822;2023-08-06T08:46:19;17.60;99.90
20366;DHT22;10341;49.894;8.822;2023-08-06T08:51:39;17.50;99.90
20366;DHT22;10341;49.894;8.822;2023-08-06T08:56:59;17.40;99.90
20366;DHT22;10341;49.894;8.822;2023-08-06T09:02:21;17.50;99.90
20366;DHT22;10341;49.894;8.822;2023-08-06T09:07:48;17.70;99.90
20366;DHT22;10341;49.894;8.822;2023-08-06T09:13:07;18.10;99.90
20366;DHT22;10341;49.894;8.822;2023-08-06T09:18:29;18.80;99.90
20366;DHT22;10341;49.894;8.822;2023-08-06T09:23:48;20.30;99.90
20366;DHT22;10341;49.894;8.822;2023-08-06T09:29:08;21.70;99.90
20366;DHT22;10341;49.894;8.822;2023-08-06T09:34:28;22.00;99.90
20366;DHT22;10341;49.894;8.822;2023-08-06T09:39:47;22.00;99.90
20366;DHT22;10341;49.894;8.822;2023-08-06T09:45:07;22.90;99.90
20366;DHT22;10341;49.894;8.822;2023-08-06T09:50:31;23.80;99.90
20366;DHT22;10341;49.894;8.822;2023-08-06T09:55:51;24.90;99.90
20366;DHT22;10341;49.894;8.822;2023-08-06T10:01:11;25.60;99.90
20366;DHT22;10341;49.894;8.822;2023-08-06T10:06:34;24.50;99.90
20366;DHT22;10341;49.894;8.822;2023-08-06T10:11:56;23.70;99.90
20366;DHT22;10341;49.894;8.822;2023-08-06T10:17:17;23.90;99.90
20366;DHT22;10341;49.894;8.822;2023-08-06T10:22:42;25.90;99.90
20366;DHT22;10341;49.894;8.822;2023-08-06T10:28:09;25.40;99.90
20366;DHT22;10341;49.894;8.822;2023-08-06T10:33:44;23.60;99.90
20366;DHT22;10341;49.894;8.822;2023-08-06T10:39:05;22.10;99.90
20366;DHT22;10341;49.894;8.822;2023-08-06T10:44:25;21.30;99.90
20366;DHT22;10341;49.894;8.822;2023-08-06T10:49:44;20.40;99.90
20366;DHT22;10341;49.894;8.822;2023-08-06T10:55:04;19.70;99.90
20366;DHT22;10341;49.894;8.822;2023-08-06T11:00:24;18.80;99.90
20366;DHT22;10341;49.894;8.822;2023-08-06T11:05:50;18.70;99.90
20366;DHT22;10341;49.894;8.822;2023-08-06T11:11:10;20.50;99.90
20366;DHT22;10341;49.894;8.822;2023-08-06T11:16:32;24.10;99.90
20366;DHT22;10341;49.894;8.822;2023-08-06T11:21:52;25.40;99.90
20366;DHT22;10341;49.894;8.822;2023-08-06T11:27:16;24.60;99.90
20366;DHT22;10341;49.894;8.822;2023-08-06T11:32:45;23.90;99.90
20366;DHT22;10341;49.894;8.822;2023-08-06T11:38:05;24.10;99.90
20366;DHT22;10341;49.894;8.822;2023-08-06T11:43:25;22.70;99.90
20366;DHT22;10341;49.894;8.822;2023-08-06T11:48:52;20.30;99.90
20366;DHT22;10341;49.894;8.822;2023-08-06T11:54:11;19.50;99.90
20366;DHT22;10341;49.894;8.822;2023-08-06T11:59:31;19.50;99.90
20366;DHT22;10341;49.894;8.822;2023-08-06T12:05:01;19.60;99.90
20366;DHT22;10341;49.894;8.822;2023-08-06T12:10:21;19.50;99.90
20366;DHT22;10341;49.894;8.822;2023-08-06T12:15:41;18.80;99.90
20366;DHT22;10341;49.894;8.822;2023-08-06T12:21:01;18.90;99.90
20366;DHT22;10341;49.894;8.822;2023-08-06T12:26:20;19.30;99.90
20366;DHT22;10341;49.894;8.822;2023-08-06T12:31:40;18.80;99.90
20366;DHT22;10341;49.894;8.822;2023-08-06T12:36:59;18.40;99.90
20366;DHT22;10341;49.894;8.822;2023-08-06T12:42:19;18.50;99.90
20366;DHT22;10341;49.894;8.822;2023-08-06T12:47:39;19.40;99.90
20366;DHT22;10341;49.894;8.822;2023-08-06T12:52:57;20.00;99.90
20366;DHT22;10341;49.894;8.822;2023-08-06T12:58:17;19.70;99.90
20366;DHT22;10341;49.894;8.822;2023-08-06T13:03:36;19.60;99.90
20366;DHT22;10341;49.894;8.822;2023-08-06T13:08:59;19.10;99.90
20366;DHT22;10341;49.894;8.822;2023-08-06T13:14:18;18.20;99.90
20366;DHT22;10341;49.894;8.822;2023-08-06T13:19:38;17.60;99.90
20366;DHT22;10341;49.894;8.822;2023-08-06T13:24:57;17.40;99.90
20366;DHT22;10341;49.894;8.822;2023-08-06T13:30:17;17.40;99.90
20366;DHT22;10341;49.894;8.822;2023-08-06T13:35:39;17.40;99.90
20366;DHT22;10341;49.894;8.822;2023-08-06T13:40:59;17.50;99.90
20366;DHT22;10341;49.894;8.822;2023-08-06T13:46:18;17.50;99.90
20366;DHT22;10341;49.894;8.822;2023-08-06T13:51:39;17.50;99.90
20366;DHT22;10341;49.894;8.822;2023-08-06T13:56:58;17.60;99.90
20366;DHT22;10341;49.894;8.822;2023-08-06T14:02:17;17.80;99.90
20366;DHT22;10341;49.894;8.822;2023-08-06T14:07:37;17.90;99.90
20366;DHT22;10341;49.894;8.822;2023-08-06T14:12:56;18.10;99.90
20366;DHT22;10341;49.894;8.822;2023-08-06T14:18:16;17.90;99.90
20366;DHT22;10341;49.894;8.822;2023-08-06T14:23:35;17.30;99.90
20366;DHT22;10341;49.894;8.822;2023-08-06T14:28:54;17.30;99.90
20366;DHT22;10341;49.894;8.822;2023-08-06T14:34:13;17.00;99.90
20366;DHT22;10341;49.894;8.822;2023-08-06T14:39:32;16.80;99.90
20366;DHT22;10341;49.894;8.822;2023-08-06T14:44:51;16.60;99.90
20366;DHT22;10341;49.894;8.822;2023-08-06T14:50:11;16.40;99.90
20366;DHT22;10341;49.894;8.822;2023-08-06T14:55:31;16.30;99.90
20366;DHT22;10341;49.894;8.822;2023-08-06T15:00:51;16.50;99.90
20366;DHT22;10341;49.894;8.822;2023-08-06T15:06:10;16.50;99.90
20366;DHT22;10341;49.894;8.822;2023-08-06T15:11:29;16.60;99.90
20366;DHT22;10341;49.894;8.822;2023-08-06T15:16:49;16.70;99.90
20366;DHT22;10341;49.894;8.822;2023-08-06T15:22:10;16.60;99.90
20366;DHT22;10341;49.894;8.822;2023-08-06T15:27:31;16.70;99.90
20366;DHT22;10341;49.894;8.822;2023-08-06T15:32:52;16.60;99.90
20366;DHT22;10341;49.894;8.822;2023-08-06T15:38:11;16.50;99.90
20366;DHT22;10341;49.894;8.822;2023-08-06T15:43:31;16.30;99.90
20366;DHT22;10341;49.894;8.822;2023-08-06T15:48:50;16.10;99.90
20366;DHT22;10341;49.894;8.822;2023-08-06T15:54:10;16.00;99.90
20366;DHT22;10341;49.894;8.822;2023-08-06T15:59:31;15.70;99.90
20366;DHT22;10341;49.894;8.822;2023-08-06T16:04:51;15.60;99.90
20366;DHT22;10341;49.894;8.822;2023-08-06T16:10:10;15.60;99.90
20366;DHT22;10341;49.894;8.822;2023-08-06T16:15:29;15.40;99.90
20366;DHT22;10341;49.894;8.822;2023-08-06T16:20:51;15.30;99.90
20366;DHT22;10341;49.894;8.822;2023-08-06T16:26:12;15.10;99.90
20366;DHT22;10341;49.894;8.822;2023-08-06T16:31:31;15.10;99.90
20366;DHT22;10341;49.894;8.822;2023-08-06T16:36:50;15.10;99.90
20366;DHT22;10341;49.894;8.822;2023-08-06T16:42:11;15.10;99.90
20366;DHT22;10341;49.894;8.822;2023-08-06T16:47:30;15.00;99.90
20366;DHT22;10341;49.894;8.822;2023-08-06T16:52:50;15.00;99.90
20366;DHT22;10341;49.894;8.822;2023-08-06T16:58:10;14.90;99.90
20366;DHT22;10341;49.894;8.822;2023-08-06T17:03:29;14.90;99.90
20366;DHT22;10341;49.894;8.822;2023-08-06T17:08:48;14.80;99.90
20366;DHT22;10341;49.894;8.822;2023-08-06T17:14:07;14.80;99.90
20366;DHT22;10341;49.894;8.822;2023-08-06T17:19:26;14.80;99.90
20366;DHT22;10341;49.894;8.822;2023-08-06T17:24:45;14.70;99.90
20366;DHT22;10341;49.894;8.822;2023-08-06T17:30:06;14.70;99.90
20366;DHT22;10341;49.894;8.822;2023-08-06T17:35:26;14.70;99.90
20366;DHT22;10341;49.894;8.822;2023-08-06T17:40:54;14.60;99.90
20366;DHT22;10341;49.894;8.822;2023-08-06T17:46:15;14.60;99.90
20366;DHT22;10341;49.894;8.822;2023-08-06T17:51:34;14.60;99.90
20366;DHT22;10341;49.894;8.822;2023-08-06T17:56:54;14.50;99.90
20366;DHT22;10341;49.894;8.822;2023-08-06T18:02:13;14.50;99.90
20366;DHT22;10341;49.894;8.822;2023-08-06T18:07:33;14.50;99.90
20366;DHT22;10341;49.894;8.822;2023-08-06T18:12:52;14.40;99.90
20366;DHT22;10341;49.894;8.822;2023-08-06T18:18:12;14.30;99.90
20366;DHT22;10341;49.894;8.822;2023-08-06T18:23:31;14.30;99.90
20366;DHT22;10341;49.894;8.822;2023-08-06T18:28:50;14.20;99.90
20366;DHT22;10341;49.894;8.822;2023-08-06T18:34:09;14.20;99.90
20366;DHT22;10341;49.894;8.822;2023-08-06T18:39:28;14.10;99.90
20366;DHT22;10341;49.894;8.822;2023-08-06T18:44:47;14.10;99.90
20366;DHT22;10341;49.894;8.822;2023-08-06T18:50:07;14.00;99.90
20366;DHT22;10341;49.894;8.822;2023-08-06T18:55:27;13.90;99.90
20366;DHT22;10341;49.894;8.822;2023-08-06T19:00:46;13.90;99.90
20366;DHT22;10341;49.894;8.822;2023-08-06T19:06:06;13.80;99.90
20366;DHT22;10341;49.894;8.822;2023-08-06T19:11:26;13.80;99.90
20366;DHT22;10341;49.894;8.822;2023-08-06T19:16:45;13.70;99.90
20366;DHT22;10341;49.894;8.822;2023-08-06T19:22:05;13.60;99.90
20366;DHT22;10341;49.894;8.822;2023-08-06T19:27:24;13.60;99.90
20366;DHT22;10341;49.894;8.822;2023-08-06T19:32:43;13.50;99.90
20366;DHT22;10341;49.894;8.822;2023-08-06T19:38:03;13.40;99.90
20366;DHT22;10341;49.894;8.822;2023-08-06T19:43:22;13.40;99.90
20366;DHT22;10341;49.894;8.822;2023-08-06T19:48:42;13.30;99.90
20366;DHT22;10341;49.894;8.822;2023-08-06T19:54:00;13.20;99.90
20366;DHT22;10341;49.894;8.822;2023-08-06T19:59:20;13.20;99.90
20366;DHT22;10341;49.894;8.822;2023-08-06T20:04:39;13.10;99.90
20366;DHT22;10341;49.894;8.822;2023-08-06T20:09:58;13.10;99.90
20366;DHT22;10341;49.894;8.822;2023-08-06T20:15:18;13.10;99.90
20366;DHT22;10341;49.894;8.822;2023-08-06T20:20:38;13.10;99.90
20366;DHT22;10341;49.894;8.822;2023-08-06T20:25:57;13.10;99.90
20366;DHT22;10341;49.894;8.822;2023-08-06T20:31:17;13.00;99.90
20366;DHT22;10341;49.894;8.822;2023-08-06T20:36:36;13.00;99.90
20366;DHT22;10341;49.894;8.822;2023-08-06T20:41:55;13.00;99.90
20366;DHT22;10341;49.894;8.822;2023-08-06T20:47:15;13.00;99.90
20366;DHT22;10341;49.894;8.822;2023-08-06T20:52:34;12.90;99.90
20366;DHT22;10341;49.894;8.822;2023-08-06T20:57:54;12.90;99.90
20366;DHT22;10341;49.894;8.822;2023-08-06T21:03:13;12.90;99.90
20366;DHT22;10341;49.894;8.822;2023-08-06T21:08:34;12.90;99.90
20366;DHT22;10341;49.894;8.822;2023-08-06T21:13:53;12.90;99.90
20366;DHT22;10341;49.894;8.822;2023-08-06T21:19:13;12.90;99.90
20366;DHT22;10341;49.894;8.822;2023-08-06T21:24:32;12.90;99.90
20366;DHT22;10341;49.894;8.822;2023-08-06T21:29:52;12.90;99.90
20366;DHT22;10341;49.894;8.822;2023-08-06T21:35:11;12.90;99.90
20366;DHT22;10341;49.894;8.822;2023-08-06T21:40:33;12.90;99.90
20366;DHT22;10341;49.894;8.822;2023-08-06T21:45:53;12.90;99.90
20366;DHT22;10341;49.894;8.822;2023-08-06T21:51:16;12.90;99.90
20366;DHT22;10341;49.894;8.822;2023-08-06T21:56:36;12.90;99.90
20366;DHT22;10341;49.894;8.822;2023-08-06T22:01:55;12.90;99.90
20366;DHT22;10341;49.894;8.822;2023-08-06T22:07:14;12.90;99.90
20366;DHT22;10341;49.894;8.822;2023-08-06T22:12:33;12.90;99.90
20366;DHT22;10341;49.894;8.822;2023-08-06T22:17:53;12.90;99.90
20366;DHT22;10341;49.894;8.822;2023-08-06T22:23:12;12.90;99.90
20366;DHT22;10341;49.894;8.822;2023-08-06T22:28:32;12.90;99.90
20366;DHT22;10341;49.894;8.822;2023-08-06T22:33:51;12.90;99.90
20366;DHT22;10341;49.894;8.822;2023-08-06T22:39:11;12.90;99.90
20366;DHT22;10341;49.894;8.822;2023-08-06T22:44:30;12.90;99.90
20366;DHT22;10341;49.894;8.822;2023-08-06T22:49:50;12.80;99.90
20366;DHT22;10341;49.894;8.822;2023-08-06T22:55:09;12.80;99.90
20366;DHT22;10341;49.894;8.822;2023-08-06T23:00:28;12.90;99.90
20366;DHT22;10341;49.894;8.822;2023-08-06T23:05:48;12.90;99.90
20366;DHT22;10341;49.894;8.822;2023-08-06T23:11:07;12.80;99.90
20366;DHT22;10341;49.894;8.822;2023-08-06T23:16:27;12.80;99.90
20366;DHT22;10341;49.894;8.822;2023-08-06T23:21:47;12.80;99.90
20366;DHT22;10341;49.894;8.822;2023-08-06T23:27:06;12.80;99.90
20366;DHT22;10341;49.894;8.822;2023-08-06T23:32:28;12.80;99.90
20366;DHT22;10341;49.894;8.822;2023-08-06T23:37:48;12.70;99.90
20366;DHT22;10341;49.894;8.822;2023-08-06T23:43:07;12.70;99.90
20366;DHT22;10341;49.894;8.822;2023-08-06T23:48:28;12.70;99.90
20366;DHT22;10341;49.894;8.822;2023-08-06T23:53:48;12.70;99.90
20366;DHT22;10341;49.894;8.822;2023-08-06T23:59:09;12.60;99.90
